createdAt,value
2022-11-26T00:01:43.922Z,5.70
2022-11-26T00:03:53.397Z,6.10
2022-11-26T00:06:01.647Z,7.47
2022-11-26T00:08:18.092Z,7.07
2022-11-26T00:10:28.381Z,6.40
2022-11-26T00:12:36.947Z,5.77
2022-11-26T00:14:47.326Z,5.47
2022-11-26T00:16:55.579Z,6.90
2022-11-26T00:19:03.794Z,6.97
2022-11-26T00:21:19.436Z,7.57
2022-11-26T00:23:29.457Z,10.67
2022-11-26T00:25:42.445Z,8.47
2022-11-26T00:27:51.621Z,6.43
2022-11-26T00:30:01.251Z,7.03
2022-11-26T00:32:17.089Z,5.60
2022-11-26T00:34:25.273Z,5.80
2022-11-26T00:36:34.721Z,6.37
2022-11-26T00:38:43.044Z,6.70
2022-11-26T00:40:51.386Z,6.17
2022-11-26T00:43:01.950Z,8.93
2022-11-26T00:45:21.138Z,5.83
2022-11-26T00:47:29.836Z,6.70
2022-11-26T00:49:38.325Z,6.13
2022-11-26T00:51:47.419Z,5.80
2022-11-26T00:53:56.845Z,8.77
2022-11-26T00:56:05.298Z,6.80
2022-11-26T00:58:21.508Z,6.43
2022-11-26T01:00:33.011Z,7.23
2022-11-26T01:02:41.716Z,7.10
2022-11-26T01:04:50.214Z,7.47
2022-11-26T01:06:58.696Z,8.63
2022-11-26T01:09:07.976Z,6.93
2022-11-26T01:11:18.102Z,6.10
2022-11-26T01:13:26.518Z,6.87
2022-11-26T01:15:36.546Z,7.37
2022-11-26T01:17:45.041Z,7.43
2022-11-26T01:19:53.456Z,7.60
2022-11-26T01:22:02.032Z,5.87
2022-11-26T01:24:10.469Z,9.17
2022-11-26T01:26:20.403Z,5.13
2022-11-26T01:28:28.947Z,6.70
2022-11-26T01:30:38.727Z,5.87
2022-11-26T01:32:47.313Z,6.53
2022-11-26T01:34:55.756Z,7.50
2022-11-26T01:37:04.189Z,6.67
2022-11-26T01:39:15.854Z,5.90
2022-11-26T01:41:33.142Z,6.30
2022-11-26T01:43:43.097Z,5.97
2022-11-26T01:45:53.041Z,5.80
2022-11-26T01:48:01.541Z,7.97
2022-11-26T01:50:28.776Z,7.73
2022-11-26T01:52:37.512Z,7.60
2022-11-26T01:54:46.764Z,8.10
2022-11-26T01:56:57.656Z,6.93
2022-11-26T01:59:09.359Z,8.97
2022-11-26T02:01:19.684Z,7.90
2022-11-26T02:03:29.748Z,6.63
2022-11-26T02:05:41.903Z,6.83
2022-11-26T02:07:50.412Z,4.67
2022-11-26T02:09:58.883Z,9.53
2022-11-26T02:12:07.376Z,8.10
2022-11-26T02:14:17.292Z,7.37
2022-11-26T02:16:33.855Z,9.47
2022-11-26T02:18:46.192Z,7.73
2022-11-26T02:20:58.836Z,8.23
2022-11-26T02:23:25.943Z,8.03
2022-11-26T02:25:41.452Z,6.23
2022-11-26T02:27:59.283Z,7.83
2022-11-26T02:30:10.766Z,5.93
2022-11-26T02:32:21.586Z,5.73
2022-11-26T02:34:37.753Z,8.03
2022-11-26T02:36:48.782Z,6.80
2022-11-26T02:38:57.275Z,6.43
2022-11-26T02:41:05.771Z,6.83
2022-11-26T02:43:15.260Z,6.57
2022-11-26T02:45:26.211Z,6.70
2022-11-26T02:47:35.225Z,5.47
2022-11-26T02:49:45.197Z,5.80
2022-11-26T02:51:55.547Z,5.50
2022-11-26T02:54:04.676Z,5.20
2022-11-26T02:56:15.780Z,6.47
2022-11-26T02:58:24.215Z,7.00
2022-11-26T03:00:35.028Z,6.10
2022-11-26T03:02:45.657Z,6.37
2022-11-26T03:04:56.379Z,6.27
2022-11-26T03:07:06.216Z,6.73
2022-11-26T03:09:14.644Z,6.30
2022-11-26T03:11:23.235Z,7.20
2022-11-26T03:13:31.685Z,6.53
2022-11-26T03:15:41.592Z,6.83
2022-11-26T03:17:50.063Z,6.37
2022-11-26T03:19:58.464Z,5.37
2022-11-26T03:22:09.151Z,7.67
2022-11-26T03:24:17.532Z,9.67
2022-11-26T03:26:25.968Z,6.20
2022-11-26T03:28:35.109Z,8.13
2022-11-26T03:30:44.913Z,8.40
2022-11-26T03:32:53.349Z,8.73
2022-11-26T03:35:01.773Z,7.53
2022-11-26T03:37:10.210Z,8.57
2022-11-26T03:39:18.811Z,8.50
2022-11-26T03:41:27.381Z,9.70
2022-11-26T03:43:35.955Z,5.77
2022-11-26T03:45:45.842Z,5.87
2022-11-26T03:47:54.281Z,9.23
2022-11-26T03:50:02.672Z,8.07
2022-11-26T03:52:11.104Z,9.00
2022-11-26T03:54:19.548Z,8.57
2022-11-26T03:56:27.943Z,8.30
2022-11-26T03:58:36.392Z,8.63
2022-11-26T04:00:46.176Z,6.53
2022-11-26T04:02:54.617Z,7.90
2022-11-26T04:05:03.194Z,9.13
2022-11-26T04:07:12.142Z,7.73
2022-11-26T04:09:20.827Z,7.87
2022-11-26T04:11:29.245Z,7.90
2022-11-26T04:13:37.673Z,8.93
2022-11-26T04:15:47.555Z,8.27
2022-11-26T04:17:55.955Z,6.70
2022-11-26T04:20:04.402Z,9.93
2022-11-26T04:22:12.909Z,7.37
2022-11-26T04:24:21.568Z,7.90
2022-11-26T04:26:30.206Z,9.80
2022-11-26T04:28:38.783Z,9.93
2022-11-26T04:30:48.585Z,7.53
2022-11-26T04:32:57.080Z,10.50
2022-11-26T04:35:05.861Z,10.43
2022-11-26T04:37:14.261Z,10.70
2022-11-26T04:39:22.677Z,7.93
2022-11-26T04:41:31.045Z,11.23
2022-11-26T04:43:39.503Z,9.23
2022-11-26T04:45:49.530Z,10.60
2022-11-26T04:47:58.015Z,9.20
2022-11-26T04:50:06.888Z,10.33
2022-11-26T04:52:15.337Z,9.97
2022-11-26T04:54:24.229Z,8.50
2022-11-26T04:56:32.649Z,9.77
2022-11-26T04:58:41.346Z,8.13
2022-11-26T05:00:51.579Z,8.33
2022-11-26T05:03:00.168Z,10.00
2022-11-26T05:05:08.984Z,9.40
2022-11-26T05:07:17.428Z,8.77
2022-11-26T05:09:25.883Z,7.87
2022-11-26T05:11:34.273Z,8.47
2022-11-26T05:13:42.895Z,10.83
2022-11-26T05:15:52.875Z,10.07
2022-11-26T05:18:01.346Z,10.83
2022-11-26T05:20:10.425Z,10.43
2022-11-26T05:22:18.852Z,10.83
2022-11-26T05:24:27.885Z,11.47
2022-11-26T05:26:36.323Z,12.60
2022-11-26T05:28:44.729Z,10.90
2022-11-26T05:31:00.953Z,7.17
2022-11-26T05:33:09.402Z,8.73
2022-11-26T05:35:17.873Z,7.70
2022-11-26T05:37:26.481Z,11.13
2022-11-26T05:39:34.901Z,9.23
2022-11-26T05:41:43.632Z,9.07
2022-11-26T05:43:52.265Z,8.00
2022-11-26T05:46:06.890Z,8.07
2022-11-26T05:48:15.444Z,8.10
2022-11-26T05:50:23.852Z,7.23
2022-11-26T05:52:32.404Z,8.33
2022-11-26T05:54:41.185Z,8.23
2022-11-26T05:56:49.860Z,6.10
2022-11-26T05:58:59.936Z,8.77
2022-11-26T06:01:10.525Z,6.57
2022-11-26T06:03:20.450Z,5.90
2022-11-26T06:05:29.288Z,6.83
2022-11-26T06:07:43.304Z,6.50
2022-11-26T06:09:53.208Z,7.63
2022-11-26T06:12:01.740Z,9.50
2022-11-26T06:14:10.530Z,7.60
2022-11-26T06:16:20.757Z,7.63
2022-11-26T06:18:29.401Z,5.57
2022-11-26T06:20:38.227Z,7.10
2022-11-26T06:22:46.628Z,10.90
2022-11-26T06:24:54.995Z,7.80
2022-11-26T06:27:03.379Z,8.60
2022-11-26T06:29:11.809Z,8.83
2022-11-26T06:31:22.483Z,8.27
2022-11-26T06:33:30.932Z,7.20
2022-11-26T06:35:39.347Z,6.77
2022-11-26T06:37:47.857Z,7.33
2022-11-26T06:39:56.365Z,8.63
2022-11-26T06:42:04.785Z,6.77
2022-11-26T06:44:13.220Z,8.07
2022-11-26T06:46:23.297Z,7.63
2022-11-26T06:48:32.354Z,9.87
2022-11-26T06:50:40.972Z,6.83
2022-11-26T06:52:52.775Z,6.60
2022-11-26T06:55:01.164Z,7.70
2022-11-26T06:57:09.755Z,6.47
2022-11-26T06:59:18.139Z,9.07
2022-11-26T07:01:28.231Z,7.00
2022-11-26T07:03:36.802Z,8.07
2022-11-26T07:05:45.237Z,10.43
2022-11-26T07:07:53.737Z,7.53
2022-11-26T07:10:02.171Z,8.30
2022-11-26T07:12:10.592Z,7.57
2022-11-26T07:14:19.061Z,7.80
2022-11-26T07:16:29.081Z,8.70
2022-11-26T07:18:37.579Z,12.17
2022-11-26T07:20:46.214Z,8.53
2022-11-26T07:22:54.986Z,7.23
2022-11-26T07:25:04.498Z,6.03
2022-11-26T07:27:14.544Z,6.47
2022-11-26T07:29:23.116Z,9.73
2022-11-26T07:31:33.000Z,8.13
2022-11-26T07:33:41.520Z,7.43
2022-11-26T07:35:50.020Z,6.83
2022-11-26T07:37:58.687Z,7.93
2022-11-26T07:40:08.316Z,7.03
2022-11-26T07:42:16.970Z,9.00
2022-11-26T07:44:25.411Z,8.77
2022-11-26T07:46:35.266Z,8.40
2022-11-26T07:48:43.935Z,7.47
2022-11-26T07:50:52.445Z,6.30
2022-11-26T07:53:00.796Z,6.47
2022-11-26T07:55:12.427Z,8.37
2022-11-26T07:57:22.646Z,8.63
2022-11-26T07:59:31.097Z,6.50
2022-11-26T08:01:40.995Z,7.10
2022-11-26T08:03:50.474Z,7.87
2022-11-26T08:05:58.840Z,12.23
2022-11-26T08:08:07.556Z,9.50
2022-11-26T08:10:16.069Z,6.43
2022-11-26T08:12:24.761Z,9.37
2022-11-26T08:14:33.175Z,9.20
2022-11-26T08:16:43.017Z,8.43
2022-11-26T08:18:55.628Z,8.60
2022-11-26T08:21:04.124Z,6.97
2022-11-26T08:23:12.716Z,9.70
2022-11-26T08:25:21.101Z,8.00
2022-11-26T08:27:29.671Z,8.60
2022-11-26T08:29:38.193Z,7.83
2022-11-26T08:31:48.236Z,9.53
2022-11-26T08:33:57.996Z,8.17
2022-11-26T08:36:08.443Z,9.20
2022-11-26T08:38:17.130Z,8.87
2022-11-26T08:40:25.673Z,8.27
2022-11-26T08:42:35.234Z,10.50
2022-11-26T08:44:43.871Z,9.67
2022-11-26T08:46:53.920Z,9.63
2022-11-26T08:49:02.342Z,7.43
2022-11-26T08:51:12.434Z,9.37
2022-11-26T08:53:21.192Z,8.13
2022-11-26T08:55:53.410Z,7.17
2022-11-26T08:57:58.503Z,9.67
2022-11-26T09:00:07.527Z,9.10
2022-11-26T09:02:18.976Z,8.53
2022-11-26T09:04:27.924Z,9.00
2022-11-26T09:06:37.850Z,10.80
2022-11-26T09:09:06.682Z,8.53
2022-11-26T09:11:15.522Z,8.47
2022-11-26T09:13:24.033Z,9.97
2022-11-26T09:15:32.448Z,10.70
2022-11-26T09:17:42.497Z,7.60
2022-11-26T09:19:50.908Z,6.67
2022-11-26T09:21:59.979Z,8.57
2022-11-26T09:24:08.727Z,9.37
2022-11-26T09:26:18.369Z,9.60
2022-11-26T09:28:26.878Z,9.03
2022-11-26T09:30:35.437Z,8.53
2022-11-26T09:32:45.504Z,9.10
2022-11-26T09:34:55.000Z,9.83
2022-11-26T09:37:03.447Z,8.30
2022-11-26T09:39:14.244Z,10.77
2022-11-26T09:41:32.175Z,7.73
2022-11-26T09:43:47.213Z,8.27
2022-11-26T09:45:59.307Z,9.40
2022-11-26T09:48:13.592Z,12.80
2022-11-26T09:50:25.855Z,9.30
2022-11-26T09:52:36.773Z,9.10
2022-11-26T09:54:46.072Z,8.10
2022-11-26T09:56:56.360Z,8.87
2022-11-26T09:59:06.711Z,10.87
2022-11-26T10:01:18.480Z,8.10
2022-11-26T10:03:32.725Z,9.50
2022-11-26T10:05:50.536Z,7.97
2022-11-26T10:08:04.571Z,7.87
2022-11-26T10:10:19.680Z,8.87
2022-11-26T10:12:45.986Z,8.30
2022-11-26T10:15:06.769Z,8.30
2022-11-26T10:17:25.002Z,8.80
2022-11-26T10:19:41.103Z,10.37
2022-11-26T10:21:59.954Z,9.93
2022-11-26T10:24:12.312Z,9.03
2022-11-26T10:26:23.411Z,10.27
2022-11-26T10:28:33.724Z,10.40
2022-11-26T10:30:42.454Z,8.03
2022-11-26T10:32:51.936Z,9.37
2022-11-26T10:35:02.220Z,9.07
2022-11-26T10:37:13.246Z,8.77
2022-11-26T10:39:22.227Z,11.10
2022-11-26T10:41:32.033Z,9.07
2022-11-26T10:43:40.470Z,8.80
2022-11-26T10:45:49.875Z,10.03
2022-11-26T10:48:16.036Z,7.73
2022-11-26T10:52:55.141Z,8.67
2022-11-26T10:55:27.645Z,9.90
2022-11-26T10:57:38.638Z,9.77
2022-11-26T10:59:49.053Z,11.00
2022-11-26T11:02:02.923Z,8.57
2022-11-26T11:04:23.601Z,8.60
2022-11-26T11:06:40.081Z,7.40
2022-11-26T11:08:49.442Z,8.33
2022-11-26T11:10:58.923Z,9.00
2022-11-26T11:13:13.199Z,8.63
2022-11-26T11:15:23.883Z,10.13
2022-11-26T11:17:33.939Z,8.70
2022-11-26T11:19:42.361Z,9.90
2022-11-26T11:21:52.798Z,7.23
2022-11-26T11:24:11.616Z,6.63
2022-11-26T11:26:22.267Z,6.40
2022-11-26T11:28:31.939Z,8.97
2022-11-26T11:30:41.210Z,9.23
2022-11-26T11:32:51.043Z,9.60
2022-11-26T11:35:13.254Z,8.93
2022-11-26T11:37:23.169Z,10.10
2022-11-26T11:39:32.184Z,8.97
2022-11-26T11:41:43.301Z,10.63
2022-11-26T11:43:51.854Z,9.33
2022-11-26T11:46:18.205Z,7.93
2022-11-26T11:48:31.796Z,10.27
2022-11-26T11:50:43.895Z,7.87
2022-11-26T11:53:01.373Z,8.13
2022-11-26T11:55:16.816Z,7.97
2022-11-26T11:57:32.144Z,9.20
2022-11-26T12:00:10.803Z,7.93
2022-11-26T12:02:32.277Z,8.00
2022-11-26T12:04:48.996Z,12.23
2022-11-26T12:07:08.708Z,9.07
2022-11-26T12:09:24.732Z,10.30
2022-11-26T12:11:38.507Z,9.87
2022-11-26T12:13:50.208Z,8.30
2022-11-26T12:16:01.784Z,7.30
2022-11-26T12:18:22.596Z,9.57
2022-11-26T12:20:33.466Z,8.83
2022-11-26T12:22:44.612Z,8.13
2022-11-26T12:24:56.976Z,8.33
2022-11-26T12:27:06.499Z,9.20
2022-11-26T12:29:20.046Z,8.60
2022-11-26T12:31:30.878Z,10.90
2022-11-26T12:33:44.297Z,10.20
2022-11-26T12:35:54.532Z,8.77
2022-11-26T12:38:05.200Z,9.40
2022-11-26T12:40:23.813Z,12.03
2022-11-26T12:42:35.688Z,13.90
2022-11-26T12:44:46.154Z,11.43
2022-11-26T12:46:56.227Z,9.53
2022-11-26T12:49:08.726Z,8.80
2022-11-26T12:51:26.334Z,7.17
2022-11-26T12:53:41.304Z,11.33
2022-11-26T12:55:55.804Z,10.20
2022-11-26T12:58:06.613Z,9.70
2022-11-26T13:00:35.488Z,9.27
2022-11-26T13:02:45.570Z,9.17
2022-11-26T13:04:54.919Z,10.63
2022-11-26T13:07:11.615Z,9.53
2022-11-26T13:09:28.555Z,10.27
2022-11-26T13:11:43.216Z,9.20
2022-11-26T13:13:53.770Z,9.73
2022-11-26T13:16:07.056Z,10.27
2022-11-26T13:18:17.950Z,9.30
2022-11-26T13:20:44.061Z,6.93
2022-11-26T13:23:07.691Z,9.30
2022-11-26T13:25:37.338Z,8.97
2022-11-26T13:27:53.845Z,8.67
2022-11-26T13:30:09.789Z,8.70
2022-11-26T13:32:34.729Z,7.43
2022-11-26T13:34:53.379Z,10.00
2022-11-26T13:37:13.831Z,9.07
2022-11-26T13:39:35.729Z,8.50
2022-11-26T13:41:53.170Z,8.68
2022-11-26T13:44:22.465Z,11.50
2022-11-26T13:46:33.238Z,11.10
2022-11-26T13:48:46.657Z,7.60
2022-11-26T13:50:59.642Z,7.10
2022-11-26T13:53:11.638Z,7.67
2022-11-26T13:55:22.950Z,6.83
2022-11-26T13:57:37.407Z,6.90
2022-11-26T13:59:49.952Z,7.60
2022-11-26T14:01:59.866Z,6.90
2022-11-26T14:04:09.800Z,8.97
2022-11-26T14:06:18.373Z,11.37
2022-11-26T14:08:36.730Z,9.60
2022-11-26T14:10:47.684Z,11.97
2022-11-26T14:13:17.508Z,21.40
2022-11-26T14:15:41.040Z,25.90
2022-11-26T14:17:58.387Z,22.10
2022-11-26T14:20:12.003Z,12.53
2022-11-26T14:22:28.798Z,6.97
2022-11-26T14:24:56.920Z,8.67
2022-11-26T14:27:05.425Z,8.27
2022-11-26T14:29:19.189Z,9.20
2022-11-26T14:31:30.961Z,7.90
2022-11-26T14:33:45.028Z,6.27
2022-11-26T14:35:55.278Z,7.30
2022-11-26T14:38:04.799Z,6.33
2022-11-26T14:40:21.577Z,7.30
2022-11-26T14:42:30.506Z,8.33
2022-11-26T14:44:39.048Z,8.17
2022-11-26T14:46:48.352Z,7.40
2022-11-26T14:49:00.000Z,9.43
2022-11-26T14:51:10.031Z,8.10
2022-11-26T14:53:18.573Z,7.43
2022-11-26T14:55:29.134Z,7.33
2022-11-26T14:57:43.055Z,7.90
2022-11-26T14:59:58.672Z,5.63
2022-11-26T15:02:21.956Z,8.53
2022-11-26T15:04:34.575Z,6.87
2022-11-26T15:06:45.479Z,6.93
2022-11-26T15:09:05.812Z,8.13
2022-11-26T15:11:18.692Z,6.67
2022-11-26T15:13:31.781Z,7.47
2022-11-26T15:15:51.454Z,8.93
2022-11-26T15:18:02.537Z,6.83
2022-11-26T15:20:16.571Z,7.00
2022-11-26T15:22:26.822Z,7.43
2022-11-26T15:24:35.449Z,10.10
2022-11-26T15:26:47.023Z,8.13
2022-11-26T15:28:55.651Z,8.03
2022-11-26T15:31:05.382Z,7.83
2022-11-26T15:33:15.445Z,7.43
2022-11-26T15:35:25.246Z,7.20
2022-11-26T15:37:33.688Z,7.10
2022-11-26T15:39:42.293Z,6.97
2022-11-26T15:41:51.223Z,7.50
2022-11-26T15:44:00.199Z,7.33
2022-11-26T15:46:19.007Z,8.80
2022-11-26T15:48:50.436Z,7.90
2022-11-26T15:50:59.430Z,7.80
2022-11-26T15:53:10.204Z,7.53
2022-11-26T15:55:22.053Z,7.43
2022-11-26T15:57:32.777Z,7.80
2022-11-26T15:59:43.648Z,9.50
2022-11-26T16:01:52.218Z,14.37
2022-11-26T16:04:04.584Z,19.50
2022-11-26T16:06:29.383Z,15.80
2022-11-26T16:08:43.100Z,10.53
2022-11-26T16:10:56.969Z,9.60
2022-11-26T16:13:23.084Z,9.87
2022-11-26T16:15:31.651Z,9.37
2022-11-26T16:17:40.105Z,8.67
2022-11-26T16:19:50.045Z,8.17
2022-11-26T16:22:03.833Z,7.87
2022-11-26T16:24:24.524Z,8.93
2022-11-26T16:26:33.672Z,9.00
2022-11-26T16:28:42.082Z,9.87
2022-11-26T16:30:51.240Z,16.40
2022-11-26T16:32:59.733Z,17.03
2022-11-26T16:35:29.843Z,10.80
2022-11-26T16:37:44.648Z,14.27
2022-11-26T16:39:53.784Z,15.07
2022-11-26T16:42:02.233Z,10.60
2022-11-26T16:44:10.801Z,10.67
2022-11-26T16:46:20.428Z,14.07
2022-11-26T16:48:29.422Z,10.73
2022-11-26T16:50:37.868Z,10.87
2022-11-26T16:52:47.933Z,10.90
2022-11-26T16:54:56.713Z,11.47
2022-11-26T16:57:05.177Z,13.17
2022-11-26T16:59:18.353Z,14.70
2022-11-26T17:01:27.113Z,13.43
2022-11-26T17:03:35.670Z,13.70
2022-11-26T17:05:44.796Z,16.03
2022-11-26T17:07:56.017Z,15.57
2022-11-26T17:10:04.935Z,14.87
2022-11-26T17:12:17.183Z,11.97
2022-11-26T17:14:25.785Z,12.13
2022-11-26T17:16:34.601Z,10.47
2022-11-26T17:18:43.253Z,8.70
2022-11-26T17:20:52.399Z,13.13
2022-11-26T17:23:02.203Z,8.33
2022-11-26T17:25:11.176Z,7.30
2022-11-26T17:27:21.004Z,8.67
2022-11-26T17:29:29.674Z,8.33
2022-11-26T17:31:38.226Z,9.10
2022-11-26T17:33:46.874Z,8.53
2022-11-26T17:35:55.361Z,7.60
2022-11-26T17:38:05.896Z,8.27
2022-11-26T17:40:17.700Z,8.57
2022-11-26T17:42:26.431Z,9.03
2022-11-26T17:44:35.224Z,8.10
2022-11-26T17:47:09.226Z,8.17
2022-11-26T17:49:12.228Z,7.10
2022-11-26T17:51:20.632Z,8.57
2022-11-26T17:53:30.469Z,8.53
2022-11-26T17:55:39.075Z,10.03
2022-11-26T17:57:48.379Z,9.43
2022-11-26T17:59:56.821Z,9.10
2022-11-26T18:02:06.815Z,20.53
2022-11-26T18:04:15.464Z,9.50
2022-11-26T18:06:35.280Z,12.33
2022-11-26T18:08:45.443Z,12.40
2022-11-26T18:10:54.185Z,14.93
2022-11-26T18:13:02.966Z,10.27
2022-11-26T18:15:18.100Z,13.20
2022-11-26T18:17:26.908Z,15.87
2022-11-26T18:19:39.388Z,12.47
2022-11-26T18:21:51.587Z,12.43
2022-11-26T18:24:01.590Z,23.07
2022-11-26T18:26:15.894Z,14.03
2022-11-26T18:28:24.270Z,16.43
2022-11-26T18:30:33.050Z,26.53
2022-11-26T18:32:52.411Z,14.50
2022-11-26T18:35:01.268Z,29.13
2022-11-26T18:37:10.020Z,26.07
2022-11-26T18:39:19.829Z,42.97
2022-11-26T18:41:28.560Z,32.27
2022-11-26T18:43:38.784Z,26.03
2022-11-26T18:45:47.228Z,18.67
2022-11-26T18:47:55.714Z,41.00
2022-11-26T18:50:04.127Z,20.17
2022-11-26T18:52:12.711Z,47.87
2022-11-26T18:54:22.547Z,26.80
2022-11-26T18:56:31.376Z,38.07
2022-11-26T18:58:39.802Z,49.13
2022-11-26T19:00:48.412Z,21.77
2022-11-26T19:02:57.613Z,24.07
2022-11-26T19:05:06.483Z,18.83
2022-11-26T19:07:15.834Z,47.30
2022-11-26T19:09:25.814Z,24.17
2022-11-26T19:11:34.286Z,20.93
2022-11-26T19:13:42.820Z,25.37
2022-11-26T19:15:51.543Z,22.23
2022-11-26T19:18:00.004Z,43.60
2022-11-26T19:20:09.394Z,49.87
2022-11-26T19:22:17.999Z,28.00
2022-11-26T19:24:27.846Z,46.50
2022-11-26T19:26:37.706Z,23.83
2022-11-26T19:28:46.217Z,19.53
2022-11-26T19:31:02.076Z,30.40
2022-11-26T19:33:10.829Z,31.67
2022-11-26T19:35:19.305Z,35.47
2022-11-26T19:37:28.182Z,53.63
2022-11-26T19:39:38.252Z,34.30
2022-11-26T19:41:48.146Z,59.57
2022-11-26T19:43:56.630Z,63.60
2022-11-26T19:46:05.710Z,75.40
2022-11-26T19:48:14.467Z,66.33
2022-11-26T19:50:22.946Z,96.87
2022-11-26T19:52:31.370Z,63.83
2022-11-26T19:54:41.251Z,48.83
2022-11-26T19:56:49.701Z,87.97
2022-11-26T19:58:59.223Z,67.50
2022-11-26T20:01:08.408Z,27.93
2022-11-26T20:03:17.072Z,26.10
2022-11-26T20:05:25.534Z,44.63
2022-11-26T20:07:34.089Z,26.73
2022-11-26T20:09:44.001Z,27.67
2022-11-26T20:11:52.792Z,31.83
2022-11-26T20:14:01.372Z,27.63
2022-11-26T20:16:10.292Z,48.07
2022-11-26T20:18:18.774Z,50.23
2022-11-26T20:20:27.396Z,69.93
2022-11-26T20:22:37.566Z,38.73
2022-11-26T20:24:47.429Z,33.63
2022-11-26T20:26:56.122Z,48.40
2022-11-26T20:29:06.154Z,56.57
2022-11-26T20:31:19.275Z,50.37
2022-11-26T20:33:30.459Z,70.50
2022-11-26T20:35:41.340Z,64.10
2022-11-26T20:37:50.011Z,30.53
2022-11-26T20:39:59.900Z,97.93
2022-11-26T20:42:08.739Z,56.60
2022-11-26T20:44:17.448Z,72.33
2022-11-26T20:46:26.551Z,59.67
2022-11-26T20:48:36.245Z,67.30
2022-11-26T20:50:44.869Z,63.33
2022-11-26T20:52:53.348Z,34.60
2022-11-26T20:55:03.250Z,72.37
2022-11-26T20:57:11.739Z,33.60
2022-11-26T20:59:20.121Z,47.37
2022-11-26T21:01:29.742Z,15.87
2022-11-26T21:03:38.205Z,24.37
2022-11-26T21:05:46.756Z,15.97
2022-11-26T21:07:55.912Z,17.83
2022-11-26T21:10:06.020Z,17.23
2022-11-26T21:12:14.608Z,14.43
2022-11-26T21:14:23.055Z,15.47
2022-11-26T21:16:32.126Z,12.53
2022-11-26T21:18:40.590Z,11.27
2022-11-26T21:20:49.294Z,11.70
2022-11-26T21:22:57.723Z,23.93
2022-11-26T21:25:09.004Z,49.60
2022-11-26T21:27:17.686Z,37.17
2022-11-26T21:29:26.720Z,13.37
2022-11-26T21:31:35.160Z,16.07
2022-11-26T21:33:43.962Z,12.10
2022-11-26T21:35:52.372Z,14.43
2022-11-26T21:38:01.062Z,13.57
2022-11-26T21:40:11.941Z,15.70
2022-11-26T21:42:20.395Z,13.67
2022-11-26T21:44:29.048Z,10.60
2022-11-26T21:46:38.984Z,14.83
2022-11-26T21:48:47.982Z,12.90
2022-11-26T21:50:56.829Z,13.87
2022-11-26T21:53:05.246Z,11.63
2022-11-26T21:55:15.250Z,14.27
2022-11-26T21:57:24.609Z,10.73
2022-11-26T21:59:33.030Z,11.77
2022-11-26T22:01:41.550Z,13.20
2022-11-26T22:03:50.822Z,12.80
2022-11-26T22:06:00.371Z,9.63
2022-11-26T22:08:08.891Z,11.23
2022-11-26T22:10:19.192Z,12.73
2022-11-26T22:12:28.134Z,10.73
2022-11-26T22:14:36.757Z,12.57
2022-11-26T22:16:47.381Z,11.00
2022-11-26T22:18:56.404Z,12.07
2022-11-26T22:21:05.220Z,13.77
2022-11-26T22:23:13.737Z,14.07
2022-11-26T22:25:23.881Z,12.33
2022-11-26T22:27:32.520Z,13.57
2022-11-26T22:29:41.263Z,12.60
2022-11-26T22:31:52.688Z,11.17
2022-11-26T22:34:02.401Z,12.13
2022-11-26T22:36:11.236Z,13.67
2022-11-26T22:38:19.760Z,11.80
2022-11-26T22:40:29.798Z,11.53
2022-11-26T22:42:38.451Z,10.43
2022-11-26T22:44:47.180Z,12.63
2022-11-26T22:46:55.628Z,14.60
2022-11-26T22:49:04.506Z,13.93
2022-11-26T22:51:13.637Z,14.80
2022-11-26T22:53:22.174Z,13.50
2022-11-26T22:55:32.058Z,15.27
2022-11-26T22:57:40.598Z,15.33
2022-11-26T22:59:49.043Z,16.07
2022-11-26T23:01:57.788Z,16.47
2022-11-26T23:04:07.208Z,15.23
2022-11-26T23:06:16.317Z,14.53
2022-11-26T23:08:24.807Z,16.37
2022-11-26T23:10:34.992Z,16.37
2022-11-26T23:12:43.427Z,17.70
2022-11-26T23:14:51.910Z,18.13
2022-11-26T23:17:00.314Z,17.47
2022-11-26T23:19:09.351Z,19.97
2022-11-26T23:21:19.616Z,17.23
2022-11-26T23:23:28.097Z,16.67
2022-11-26T23:25:40.762Z,16.87
2022-11-26T23:27:49.656Z,20.33
2022-11-26T23:29:58.453Z,19.03
2022-11-26T23:32:06.968Z,15.13
2022-11-26T23:34:15.911Z,17.00
2022-11-26T23:36:24.726Z,17.30
2022-11-26T23:38:33.319Z,19.33
2022-11-26T23:40:44.521Z,17.83
2022-11-26T23:42:53.157Z,20.53
2022-11-26T23:45:02.049Z,17.37
2022-11-26T23:47:10.491Z,16.30
2022-11-26T23:49:19.124Z,18.50
2022-11-26T23:51:29.250Z,19.63
2022-11-26T23:53:38.448Z,19.73
2022-11-26T23:55:48.969Z,17.97
2022-11-26T23:57:57.509Z,21.93
